Time;durP1;ratioP1;P1;durP2;ratioP2;P2;SDS_P1;SDS_P2;PMS_P1;PMS_P2;Temp;Humidity;BMP_temperature;BMP_pressure;BME280_temperature;BME280_humidity;BME280_pressure;Samples;Min_cycle;Max_cycle;Signal;HPM_P1;HPM_P2
2022/08/10 00:01:07;;;;;;;4.55;3.60;;;16.80;97.20;;;;;;5092702;28;20200;-77
2022/08/10 00:03:34;;;;;;;4.45;4.05;;;16.80;95.90;;;;;;5092616;28;20261;-77
2022/08/10 00:06:00;;;;;;;5.90;4.38;;;16.90;96.20;;;;;;5092519;28;20625;-78
2022/08/10 00:08:27;;;;;;;4.93;4.45;;;16.90;96.40;;;;;;5092442;28;20258;-78
2022/08/10 00:10:56;;;;;;;4.75;4.35;;;16.70;96.80;;;;;;5092524;28;20678;-78
2022/08/10 00:13:25;;;;;;;4.87;4.20;;;16.50;97.20;;;;;;5095126;28;20242;-78
2022/08/10 00:15:52;;;;;;;6.00;4.22;;;16.50;97.90;;;;;;5096704;28;20200;-78
2022/08/10 00:18:19;;;;;;;5.32;4.00;;;16.30;99.10;;;;;;5096444;28;20707;-77
2022/08/10 00:20:46;;;;;;;5.15;3.85;;;16.30;99.60;;;;;;5096577;28;20197;-78
2022/08/10 00:23:13;;;;;;;6.77;4.13;;;16.20;99.90;;;;;;5095909;28;20200;-77
2022/08/10 00:25:39;;;;;;;6.03;4.17;;;16.20;99.90;;;;;;5095779;28;20200;-78
2022/08/10 00:28:07;;;;;;;6.20;4.00;;;16.10;99.90;;;;;;5095764;28;20232;-77
2022/08/10 00:30:34;;;;;;;4.53;4.13;;;15.90;99.90;;;;;;5095730;28;20656;-78
2022/08/10 00:33:01;;;;;;;5.07;4.03;;;16.10;99.90;;;;;;5096238;28;20201;-78
2022/08/10 00:35:28;;;;;;;5.75;4.47;;;16.20;99.90;;;;;;5095875;28;20200;-77
2022/08/10 00:37:54;;;;;;;4.57;4.10;;;16.00;99.90;;;;;;5095463;28;20224;-77
2022/08/10 00:40:21;;;;;;;6.80;4.97;;;16.10;99.90;;;;;;5095307;28;20228;-77
2022/08/10 00:42:48;;;;;;;5.40;4.40;;;16.20;99.90;;;;;;5095471;28;20192;-78
2022/08/10 00:45:16;;;;;;;5.00;4.30;;;16.00;99.90;;;;;;5095611;28;20200;-77
2022/08/10 00:47:42;;;;;;;5.53;4.17;;;16.00;99.90;;;;;;5095375;28;20196;-77
2022/08/10 00:50:10;;;;;;;6.13;4.43;;;15.80;99.90;;;;;;5095322;28;20200;-78
2022/08/10 00:52:38;;;;;;;7.27;4.77;;;15.70;99.90;;;;;;5095158;28;20647;-77
2022/08/10 00:55:06;;;;;;;5.40;4.57;;;15.90;99.90;;;;;;5094971;28;20197;-77
2022/08/10 00:57:33;;;;;;;5.87;4.43;;;15.90;99.90;;;;;;5095014;28;20756;-78
2022/08/10 01:00:00;;;;;;;7.63;4.17;;;15.90;99.90;;;;;;5095414;28;20655;-77
2022/08/10 01:02:31;;;;;;;5.13;4.63;;;15.80;99.90;;;;;;5095091;28;20201;-77
2022/08/10 01:04:58;;;;;;;5.30;4.80;;;15.70;99.90;;;;;;5095058;28;20242;-78
2022/08/10 01:07:36;;;;;;;5.60;4.50;;;15.60;99.90;;;;;;5094904;28;20196;-77
2022/08/10 01:10:13;;;;;;;6.03;4.50;;;15.60;99.90;;;;;;5095101;28;20253;-77
2022/08/10 01:12:49;;;;;;;6.17;4.13;;;15.60;99.90;;;;;;5094756;28;20694;-77
2022/08/10 01:15:24;;;;;;;5.73;4.40;;;15.40;99.90;;;;;;5094875;28;20196;-77
2022/08/10 01:17:59;;;;;;;5.20;4.70;;;15.30;99.90;;;;;;5094631;28;20231;-77
2022/08/10 01:20:37;;;;;;;5.00;4.50;;;15.30;99.90;;;;;;5094807;28;20195;-77
2022/08/10 01:23:28;;;;;;;6.03;4.70;;;15.50;99.90;;;;;;5094468;28;20200;-77
2022/08/10 01:26:05;;;;;;;6.30;4.53;;;15.50;99.90;;;;;;5094609;28;20193;-77
2022/08/10 01:28:43;;;;;;;7.97;4.30;;;15.50;99.90;;;;;;5094421;28;20297;-77
2022/08/10 01:31:15;;;;;;;4.80;4.23;;;15.50;99.90;;;;;;5094571;28;20192;-77
2022/08/10 01:33:49;;;;;;;7.03;4.57;;;15.50;99.90;;;;;;5094475;28;20254;-77
2022/08/10 01:36:20;;;;;;;6.50;4.30;;;15.20;99.90;;;;;;5094395;28;20717;-77
2022/08/10 01:38:49;;;;;;;5.43;4.40;;;15.20;99.90;;;;;;5094163;28;20224;-77
2022/08/10 01:41:21;;;;;;;5.90;4.13;;;15.20;99.90;;;;;;5094125;28;20224;-77
2022/08/10 01:43:50;;;;;;;7.63;4.53;;;15.30;99.90;;;;;;5094360;28;20201;-77
2022/08/10 01:46:22;;;;;;;5.07;4.60;;;15.20;99.90;;;;;;5094174;28;20644;-77
2022/08/10 01:48:50;;;;;;;5.63;4.43;;;15.30;99.90;;;;;;5094259;28;20200;-77
2022/08/10 01:51:21;;;;;;;6.93;4.53;;;15.20;99.90;;;;;;5094008;28;20590;-77
2022/08/10 01:53:54;;;;;;;6.90;4.70;;;15.20;99.90;;;;;;5094336;28;20249;-77
2022/08/10 01:56:23;;;;;;;4.77;4.37;;;15.20;99.90;;;;;;5094225;28;20223;-77
2022/08/10 01:58:52;;;;;;;7.30;5.30;;;15.10;99.90;;;;;;5093852;28;20698;-77
2022/08/10 02:01:24;;;;;;;5.50;5.00;;;14.80;99.90;;;;;;5093908;28;20283;-77
2022/08/10 02:03:54;;;;;;;6.20;4.83;;;14.80;99.90;;;;;;5093747;28;20651;-77
2022/08/10 02:06:24;;;;;;;6.50;4.80;;;14.80;99.90;;;;;;5094025;28;20257;-77
2022/08/10 02:08:53;;;;;;;7.50;4.90;;;14.70;99.90;;;;;;5093844;28;20253;-77
2022/08/10 02:11:20;;;;;;;5.77;4.93;;;14.80;99.90;;;;;;5093777;28;20200;-78
2022/08/10 02:13:48;;;;;;;7.07;5.37;;;14.80;99.90;;;;;;5093631;28;20200;-77
2022/08/10 02:16:16;;;;;;;8.17;4.80;;;15.00;99.90;;;;;;5093477;28;20196;-77
2022/08/10 02:18:45;;;;;;;5.20;4.70;;;14.90;99.90;;;;;;5093625;28;20277;-78
2022/08/10 02:21:13;;;;;;;6.13;5.17;;;14.80;99.90;;;;;;5093575;28;20205;-78
2022/08/10 02:23:42;;;;;;;6.03;5.40;;;14.40;99.90;;;;;;5093569;28;20200;-78
2022/08/10 02:26:09;;;;;;;6.07;5.47;;;14.50;99.90;;;;;;5093475;28;20222;-77
2022/08/10 02:28:38;;;;;;;6.50;5.33;;;14.60;99.90;;;;;;5093411;28;20232;-78
2022/08/10 02:31:09;;;;;;;6.17;5.57;;;14.30;99.90;;;;;;5093374;28;20200;-78
2022/08/10 02:33:38;;;;;;;8.40;5.60;;;14.10;99.90;;;;;;5093350;28;20721;-77
2022/08/10 02:36:10;;;;;;;8.27;5.83;;;14.00;99.90;;;;;;5092794;28;20200;-78
2022/08/10 02:38:41;;;;;;;6.17;5.47;;;14.10;99.90;;;;;;5093335;28;20224;-78
2022/08/10 02:41:13;;;;;;;7.67;5.63;;;14.00;99.90;;;;;;5093341;28;20224;-78
2022/08/10 02:43:48;;;;;;;7.03;5.40;;;14.00;99.90;;;;;;5093317;28;20257;-77
2022/08/10 02:46:25;;;;;;;8.93;5.83;;;14.00;99.90;;;;;;5093301;28;20587;-78
2022/08/10 02:48:59;;;;;;;6.60;5.20;;;14.10;99.90;;;;;;5093153;28;20704;-78
2022/08/10 02:51:35;;;;;;;13.33;5.67;;;13.90;99.90;;;;;;5093241;28;20199;-78
2022/08/10 02:54:06;;;;;;;6.53;5.93;;;14.00;99.90;;;;;;5092958;28;20196;-77
2022/08/10 02:56:37;;;;;;;7.47;5.77;;;14.10;99.90;;;;;;5093194;28;20230;-77
2022/08/10 02:59:09;;;;;;;6.40;5.90;;;13.90;99.90;;;;;;5093216;28;20224;-78
2022/08/10 03:01:42;;;;;;;6.40;5.80;;;13.70;99.90;;;;;;5093370;28;20541;-78
2022/08/10 03:04:14;;;;;;;7.37;5.97;;;13.60;99.90;;;;;;5093357;28;20192;-78
2022/08/10 03:06:47;;;;;;;8.57;6.40;;;13.50;99.90;;;;;;5093759;28;20257;-79
2022/08/10 03:09:16;;;;;;;6.77;5.97;;;13.40;99.90;;;;;;5094011;28;20204;-78
2022/08/10 03:11:44;;;;;;;9.00;6.33;;;13.30;99.90;;;;;;5094042;28;20660;-78
2022/08/10 03:14:12;;;;;;;7.70;6.40;;;13.30;99.90;;;;;;5093164;28;20199;-78
2022/08/10 03:16:39;;;;;;;7.43;6.73;;;13.30;99.90;;;;;;5092860;28;20245;-77
2022/08/10 03:19:07;;;;;;;7.20;6.53;;;13.20;99.90;;;;;;5092767;28;20276;-77
2022/08/10 03:21:35;;;;;;;7.87;7.07;;;13.10;99.90;;;;;;5092914;28;20262;-77
2022/08/10 03:24:05;;;;;;;8.50;6.50;;;13.00;99.90;;;;;;5092819;28;20708;-78
2022/08/10 03:26:32;;;;;;;9.30;6.50;;;12.90;99.90;;;;;;5092812;28;20196;-78
2022/08/10 03:29:02;;;;;;;8.90;7.13;;;12.90;99.90;;;;;;5092751;28;20204;-78
2022/08/10 03:31:29;;;;;;;7.97;7.03;;;13.10;99.90;;;;;;5092720;28;20227;-78
2022/08/10 03:33:56;;;;;;;11.97;7.00;;;13.10;99.90;;;;;;5092903;28;20196;-78
2022/08/10 03:36:23;;;;;;;7.27;6.67;;;13.20;99.90;;;;;;5092563;28;20722;-78
2022/08/10 03:38:51;;;;;;;9.10;7.50;;;13.40;99.90;;;;;;5092715;28;20285;-77
2022/08/10 03:41:25;;;;;;;8.17;7.37;;;13.30;99.90;;;;;;5092447;28;20315;-78
2022/08/10 03:43:54;;;;;;;7.23;6.53;;;13.10;99.90;;;;;;5092530;28;20715;-78
2022/08/10 03:46:23;;;;;;;11.93;7.47;;;13.00;99.90;;;;;;5093748;28;20651;-78
2022/08/10 03:48:53;;;;;;;8.80;7.40;;;12.90;99.90;;;;;;5096613;28;20253;-77
2022/08/10 03:51:21;;;;;;;8.97;7.07;;;12.90;99.90;;;;;;5096426;28;20200;-78
2022/08/10 03:53:49;;;;;;;8.40;7.30;;;12.90;99.90;;;;;;5096406;28;20237;-78
2022/08/10 03:56:16;;;;;;;9.40;6.93;;;12.80;99.90;;;;;;5096247;28;20230;-77
2022/08/10 03:58:44;;;;;;;7.33;6.53;;;12.70;99.90;;;;;;5096413;28;20625;-77
2022/08/10 04:01:11;;;;;;;8.23;6.60;;;12.60;99.90;;;;;;5096438;28;20496;-78
2022/08/10 04:03:38;;;;;;;9.23;6.77;;;12.60;99.90;;;;;;5096308;28;20204;-78
2022/08/10 04:06:05;;;;;;;7.13;6.33;;;12.60;99.90;;;;;;5096112;28;20197;-77
2022/08/10 04:08:32;;;;;;;8.20;7.50;;;12.80;99.90;;;;;;5096043;28;20200;-77
2022/08/10 04:10:59;;;;;;;7.07;6.47;;;12.80;99.90;;;;;;5096361;28;20243;-77
2022/08/10 04:13:26;;;;;;;7.93;6.50;;;12.80;99.90;;;;;;5096073;28;20200;-78
2022/08/10 04:15:54;;;;;;;8.10;7.40;;;12.60;99.90;;;;;;5096171;28;20242;-78
2022/08/10 04:18:20;;;;;;;7.90;7.20;;;12.50;99.90;;;;;;5096221;28;20552;-78
2022/08/10 04:20:50;;;;;;;7.90;7.10;;;12.50;99.90;;;;;;5096424;28;20200;-78
2022/08/10 04:23:21;;;;;;;9.73;6.90;;;12.60;99.90;;;;;;5096370;28;20208;-77
2022/08/10 04:25:49;;;;;;;7.80;7.00;;;12.60;99.90;;;;;;5096754;28;20258;-78
2022/08/10 04:28:16;;;;;;;7.37;6.67;;;12.50;99.90;;;;;;5096237;28;20200;-78
2022/08/10 04:30:44;;;;;;;8.30;7.50;;;12.50;99.90;;;;;;5095626;28;20600;-78
2022/08/10 04:33:13;;;;;;;7.90;6.77;;;12.50;99.90;;;;;;5096145;28;20196;-78
2022/08/10 04:35:41;;;;;;;10.57;7.03;;;12.50;99.90;;;;;;5095823;28;20196;-78
2022/08/10 04:38:09;;;;;;;8.10;6.73;;;12.50;99.90;;;;;;5095590;28;20220;-78
2022/08/10 04:40:36;;;;;;;10.00;7.67;;;12.60;99.90;;;;;;5095322;28;20232;-78
2022/08/10 04:43:04;;;;;;;7.83;7.07;;;12.80;99.90;;;;;;5095469;28;20652;-77
2022/08/10 04:45:31;;;;;;;7.67;6.63;;;13.10;99.90;;;;;;5096305;28;20699;-78
2022/08/10 04:47:57;;;;;;;9.00;7.87;;;13.30;99.90;;;;;;5095753;28;20204;-78
2022/08/10 04:50:26;;;;;;;9.03;7.80;;;13.50;99.90;;;;;;5095989;28;20598;-78
2022/08/10 04:52:52;;;;;;;8.57;7.70;;;13.50;99.90;;;;;;5096519;28;20202;-78
2022/08/10 04:55:19;;;;;;;8.07;7.07;;;13.70;99.90;;;;;;5096921;28;20201;-78
2022/08/10 04:57:46;;;;;;;7.97;7.17;;;13.80;99.90;;;;;;5096768;28;20196;-78
2022/08/10 05:00:14;;;;;;;7.97;6.70;;;13.80;99.90;;;;;;5097318;28;20197;-78
2022/08/10 05:02:40;;;;;;;10.77;7.23;;;13.90;99.90;;;;;;5097208;28;20203;-78
2022/08/10 05:05:08;;;;;;;11.63;7.80;;;14.00;99.90;;;;;;5096628;28;20201;-79
2022/08/10 05:07:36;;;;;;;12.00;9.63;;;14.20;99.90;;;;;;5096460;28;20222;-77
2022/08/10 05:10:04;;;;;;;11.20;7.50;;;14.40;99.90;;;;;;5096297;28;20206;-78
2022/08/10 05:12:31;;;;;;;8.30;7.13;;;14.40;99.90;;;;;;5096228;28;20297;-78
2022/08/10 05:14:57;;;;;;;10.17;7.20;;;14.40;99.90;;;;;;5096663;28;20200;-78
2022/08/10 05:17:24;;;;;;;8.93;7.10;;;14.50;99.90;;;;;;5096321;28;20200;-78
2022/08/10 05:19:51;;;;;;;8.07;7.20;;;14.80;99.90;;;;;;5096032;28;20220;-78
2022/08/10 05:22:18;;;;;;;9.57;7.27;;;14.90;99.90;;;;;;5095398;28;20207;-78
2022/08/10 05:24:46;;;;;;;7.10;6.30;;;15.00;99.90;;;;;;5094386;28;20720;-78
2022/08/10 05:27:12;;;;;;;7.67;6.67;;;15.10;99.90;;;;;;5094412;28;20250;-78
2022/08/10 05:29:39;;;;;;;7.07;6.33;;;15.20;99.90;;;;;;5094297;28;20253;-78
2022/08/10 05:32:06;;;;;;;6.73;6.07;;;15.30;99.90;;;;;;5094161;28;20200;-78
2022/08/10 05:34:33;;;;;;;6.53;5.93;;;15.50;99.90;;;;;;5094308;28;20196;-78
2022/08/10 05:37:00;;;;;;;6.43;5.93;;;15.60;99.90;;;;;;5094409;28;20200;-78
2022/08/10 05:39:27;;;;;;;6.47;5.90;;;15.60;99.90;;;;;;5093966;28;20269;-77
2022/08/10 05:41:55;;;;;;;6.47;5.72;;;15.70;99.90;;;;;;5094135;28;20266;-77
2022/08/10 05:44:22;;;;;;;6.60;5.50;;;15.80;99.90;;;;;;5094088;28;20196;-78
2022/08/10 05:46:49;;;;;;;8.67;5.80;;;15.90;99.90;;;;;;5094016;28;20196;-77
2022/08/10 05:49:15;;;;;;;6.87;5.20;;;16.00;99.90;;;;;;5094144;28;20250;-76
2022/08/10 05:51:43;;;;;;;8.77;5.93;;;16.10;99.90;;;;;;5094020;28;20200;-77
2022/08/10 05:54:14;;;;;;;6.50;5.43;;;16.20;99.90;;;;;;5094133;28;20196;-77
2022/08/10 05:56:43;;;;;;;6.33;5.73;;;16.30;99.90;;;;;;5094033;28;20218;-77
2022/08/10 05:59:12;;;;;;;12.98;5.68;;;16.40;99.90;;;;;;5093629;28;20216;-78
2022/08/10 06:01:42;;;;;;;10.77;5.75;;;16.60;99.90;;;;;;5094186;28;20200;-78
2022/08/10 06:04:10;;;;;;;7.78;5.45;;;16.70;99.90;;;;;;5094199;28;20196;-77
2022/08/10 06:06:38;;;;;;;4.65;4.00;;;16.80;99.90;;;;;;5093844;28;20199;-78
2022/08/10 06:09:07;;;;;;;4.45;3.95;;;17.10;99.90;;;;;;5093192;28;20203;-77
2022/08/10 06:11:35;;;;;;;5.65;3.70;;;17.40;99.90;;;;;;5092805;28;20614;-78
2022/08/10 06:16:51;;;;;;;3.75;3.17;;;17.80;99.90;;;;;;5093492;28;20245;-77
2022/08/10 06:19:18;;;;;;;4.28;3.13;;;18.00;99.90;;;;;;5093201;28;20220;-77
2022/08/10 06:21:45;;;;;;;4.32;3.60;;;18.10;99.90;;;;;;5093338;28;20192;-77
2022/08/10 06:24:16;;;;;;;3.42;3.13;;;18.30;99.90;;;;;;5093370;28;20222;-77
2022/08/10 06:26:42;;;;;;;5.05;3.85;;;18.40;99.90;;;;;;5093338;28;20713;-77
2022/08/10 06:29:13;;;;;;;3.90;3.60;;;18.50;99.90;;;;;;5093310;28;20249;-77
2022/08/10 06:31:43;;;;;;;4.60;4.10;;;18.50;99.90;;;;;;5093365;28;20230;-78
2022/08/10 06:34:14;;;;;;;5.40;3.72;;;18.60;99.90;;;;;;5093197;28;20257;-78
2022/08/10 06:36:45;;;;;;;4.55;3.95;;;18.60;99.90;;;;;;5092987;28;20200;-78
2022/08/10 06:39:12;;;;;;;4.95;3.58;;;18.80;99.90;;;;;;5093213;28;20228;-78
2022/08/10 06:41:45;;;;;;;8.35;4.47;;;18.90;99.90;;;;;;5092848;28;20220;-78
2022/08/10 06:44:15;;;;;;;7.53;4.43;;;18.90;99.90;;;;;;5093155;28;20192;-78
2022/08/10 06:46:47;;;;;;;7.55;4.65;;;19.00;99.90;;;;;;5092867;28;20203;-78
2022/08/10 06:49:17;;;;;;;5.32;4.47;;;19.10;99.90;;;;;;5092932;28;20580;-78
2022/08/10 06:51:47;;;;;;;6.30;4.35;;;19.10;99.90;;;;;;5093110;28;20196;-78
2022/08/10 06:54:17;;;;;;;4.55;4.13;;;19.20;99.90;;;;;;5092963;28;20196;-78
2022/08/10 06:56:45;;;;;;;7.60;4.63;;;19.30;99.90;;;;;;5092857;28;20200;-78
2022/08/10 06:59:18;;;;;;;7.70;4.90;;;19.40;99.90;;;;;;5092827;28;20232;-77
2022/08/10 07:01:50;;;;;;;11.50;4.90;;;19.50;99.90;;;;;;5092678;28;20196;-78
2022/08/10 07:04:25;;;;;;;6.65;3.85;;;19.50;99.90;;;;;;5093040;28;20200;-78
2022/08/10 07:06:54;;;;;;;4.22;3.83;;;19.70;99.90;;;;;;5092950;28;20199;-77
2022/08/10 07:09:21;;;;;;;3.97;3.67;;;19.70;99.90;;;;;;5092764;28;20347;-78
2022/08/10 07:11:50;;;;;;;5.00;4.20;;;19.70;99.90;;;;;;5092626;28;20196;-78
2022/08/10 07:14:18;;;;;;;4.78;3.95;;;19.80;99.90;;;;;;5092483;28;20203;-78
2022/08/10 07:16:46;;;;;;;6.60;4.40;;;19.90;99.90;;;;;;5092840;28;20245;-78
2022/08/10 07:19:14;;;;;;;5.45;3.63;;;20.00;99.90;;;;;;5092654;28;20223;-77
2022/08/10 07:21:44;;;;;;;6.90;4.15;;;20.10;99.90;;;;;;5094362;28;20536;-78
2022/08/10 07:24:13;;;;;;;4.43;3.90;;;20.30;99.90;;;;;;5096843;28;20261;-78
2022/08/10 07:26:44;;;;;;;4.57;3.85;;;20.40;99.90;;;;;;5096652;28;20265;-77
2022/08/10 07:29:13;;;;;;;6.95;3.67;;;20.60;99.90;;;;;;5096980;28;20235;-77
2022/08/10 07:31:41;;;;;;;4.22;3.65;;;20.80;99.90;;;;;;5096541;28;20199;-77
2022/08/10 07:34:09;;;;;;;3.60;3.30;;;20.90;99.90;;;;;;5096541;28;20250;-78
2022/08/10 07:36:37;;;;;;;3.70;3.40;;;21.20;99.90;;;;;;5096406;28;20242;-77
2022/08/10 07:39:07;;;;;;;6.20;3.40;;;21.40;99.90;;;;;;5096055;28;20293;-77
2022/08/10 07:41:37;;;;;;;4.63;3.28;;;21.50;99.90;;;;;;5095965;28;20221;-77
2022/08/10 07:44:06;;;;;;;3.85;3.17;;;21.80;99.90;;;;;;5096180;28;20563;-77
2022/08/10 07:46:35;;;;;;;4.75;3.33;;;22.00;99.40;;;;;;5096476;28;20246;-78
2022/08/10 07:49:06;;;;;;;4.78;3.28;;;22.10;98.70;;;;;;5096394;28;20257;-78
2022/08/10 07:51:33;;;;;;;6.28;3.25;;;22.30;98.60;;;;;;5096733;28;20196;-78
2022/08/10 07:54:04;;;;;;;7.35;3.60;;;22.50;97.70;;;;;;5096426;28;20204;-76
2022/08/10 07:56:34;;;;;;;4.05;2.92;;;22.60;96.50;;;;;;5096380;28;20204;-77
2022/08/10 07:59:05;;;;;;;3.88;2.80;;;22.80;95.00;;;;;;5096175;28;20228;-77
2022/08/10 08:01:35;;;;;;;3.33;2.67;;;22.90;93.50;;;;;;5096058;28;20196;-77
2022/08/10 08:04:03;;;;;;;4.22;3.00;;;22.90;92.70;;;;;;5095943;28;20254;-77
2022/08/10 08:06:32;;;;;;;4.65;3.20;;;23.10;92.70;;;;;;5095848;28;20200;-77
2022/08/10 08:09:02;;;;;;;3.72;2.28;;;23.30;91.30;;;;;;5095983;28;20207;-77
2022/08/10 08:11:30;;;;;;;3.30;2.67;;;23.50;90.70;;;;;;5095977;28;20196;-77
2022/08/10 08:14:00;;;;;;;3.13;2.60;;;23.80;89.20;;;;;;5095875;28;20301;-77
2022/08/10 08:16:27;;;;;;;3.08;2.50;;;23.90;88.00;;;;;;5096089;28;20192;-77
2022/08/10 08:18:56;;;;;;;2.60;2.40;;;24.10;83.40;;;;;;5095542;28;20204;-77
2022/08/10 08:21:23;;;;;;;4.35;2.72;;;24.10;79.90;;;;;;5096044;28;20217;-78
2022/08/10 08:23:51;;;;;;;5.25;2.63;;;24.30;77.70;;;;;;5095999;28;20207;-77
2022/08/10 08:26:19;;;;;;;3.20;2.50;;;24.50;77.10;;;;;;5096335;28;20199;-77
2022/08/10 08:28:47;;;;;;;5.85;2.50;;;24.60;75.90;;;;;;5097390;28;20204;-77
2022/08/10 08:31:17;;;;;;;4.88;2.58;;;24.90;71.90;;;;;;5096523;28;20200;-77
2022/08/10 08:33:45;;;;;;;5.63;2.70;;;24.70;67.80;;;;;;5094384;28;20575;-77
2022/08/10 08:36:15;;;;;;;3.15;2.50;;;24.60;68.10;;;;;;5095300;28;20655;-77
2022/08/10 08:38:42;;;;;;;3.70;2.50;;;24.90;68.20;;;;;;5095369;28;20283;-76
2022/08/10 08:41:27;;;;;;;3.13;2.60;;;25.00;66.30;;;;;;5095126;28;20233;-77
2022/08/10 08:44:03;;;;;;;3.85;2.88;;;25.20;63.40;;;;;;5095286;28;20192;-77
2022/08/10 08:46:53;;;;;;;4.60;2.85;;;25.20;60.10;;;;;;5095233;28;20655;-77
2022/08/10 08:49:33;;;;;;;4.85;2.83;;;25.10;60.60;;;;;;5095165;28;20659;-77
2022/08/10 08:52:16;;;;;;;4.35;3.05;;;25.20;59.70;;;;;;5095154;28;20246;-77
2022/08/10 08:54:53;;;;;;;4.43;2.70;;;25.60;59.60;;;;;;5095368;28;20250;-77
2022/08/10 08:57:26;;;;;;;2.88;2.25;;;25.80;57.30;;;;;;5095290;28;20200;-79
2022/08/10 09:00:04;;;;;;;5.30;2.70;;;26.10;56.50;;;;;;5094912;28;20220;-78
2022/08/10 09:03:02;;;;;;;3.30;2.83;;;26.30;55.50;;;;;;5094814;28;20192;-78
2022/08/10 09:05:41;;;;;;;3.20;2.63;;;26.20;53.20;;;;;;5094801;28;20204;-78
2022/08/10 09:08:27;;;;;;;3.22;2.80;;;26.40;51.80;;;;;;5094858;28;20261;-78
2022/08/10 09:11:00;;;;;;;6.18;2.70;;;26.30;51.40;;;;;;5094737;28;20208;-78
2022/08/10 09:13:34;;;;;;;5.25;2.67;;;26.60;50.50;;;;;;5094981;28;20211;-78
2022/08/10 09:16:14;;;;;;;6.90;3.05;;;26.80;49.10;;;;;;5094539;28;20660;-78
2022/08/10 09:18:52;;;;;;;3.08;2.67;;;27.10;47.60;;;;;;5094304;28;20647;-78
2022/08/10 09:21:27;;;;;;;4.35;2.65;;;26.40;45.40;;;;;;5094256;28;20613;-78
2022/08/10 09:24:02;;;;;;;5.00;2.75;;;26.20;46.60;;;;;;5094716;28;20196;-78
2022/08/10 09:26:38;;;;;;;4.85;2.95;;;26.20;46.30;;;;;;5094493;28;20245;-78
2022/08/10 09:29:07;;;;;;;4.90;2.63;;;26.70;46.30;;;;;;5094368;28;20204;-78
2022/08/10 09:31:43;;;;;;;4.43;2.50;;;27.20;45.20;;;;;;5094218;28;20250;-78
2022/08/10 09:34:19;;;;;;;3.00;2.63;;;27.10;43.80;;;;;;5094480;28;20257;-78
2022/08/10 09:36:55;;;;;;;4.40;2.75;;;27.10;43.70;;;;;;5094312;28;20200;-78
2022/08/10 09:39:27;;;;;;;5.70;2.70;;;27.20;42.60;;;;;;5094224;28;20200;-78
2022/08/10 09:42:00;;;;;;;3.50;2.90;;;27.60;42.40;;;;;;5094278;28;20196;-77
2022/08/10 09:44:38;;;;;;;3.58;2.63;;;28.60;40.40;;;;;;5094019;28;20291;-77
2022/08/10 09:47:19;;;;;;;5.70;2.60;;;29.10;37.00;;;;;;5094192;28;20227;-76
2022/08/10 09:50:05;;;;;;;4.88;2.53;;;29.30;35.80;;;;;;5094045;28;20196;-78
2022/08/10 09:52:40;;;;;;;3.53;2.25;;;29.80;33.90;;;;;;5094064;28;20718;-78
2022/08/10 09:55:14;;;;;;;5.10;2.58;;;29.70;32.70;;;;;;5094067;28;20249;-76
2022/08/10 09:57:50;;;;;;;4.15;2.65;;;29.50;31.70;;;;;;5094133;28;20193;-77
2022/08/10 10:00:20;;;;;;;4.80;2.50;;;30.00;31.60;;;;;;5093877;28;20306;-77
2022/08/10 10:02:57;;;;;;;5.43;2.53;;;29.90;28.80;;;;;;5093669;28;20664;-76
2022/08/10 10:05:45;;;;;;;4.40;2.50;;;29.30;28.30;;;;;;5093699;28;20196;-76
2022/08/10 10:08:20;;;;;;;6.30;2.38;;;29.10;28.90;;;;;;5093915;28;20245;-78
2022/08/10 10:10:57;;;;;;;3.85;2.58;;;29.00;28.80;;;;;;5093807;28;20562;-79
2022/08/10 10:13:31;;;;;;;2.38;2.10;;;29.30;26.00;;;;;;5093875;28;20200;-78
2022/08/10 10:16:08;;;;;;;5.60;2.55;;;29.40;25.20;;;;;;5095370;28;20251;-78
2022/08/10 10:18:44;;;;;;;2.55;2.00;;;29.40;25.40;;;;;;5094676;28;20196;-78
2022/08/10 10:21:20;;;;;;;3.13;2.08;;;29.50;24.10;;;;;;5093407;28;20220;-78
2022/08/10 10:23:58;;;;;;;4.43;2.47;;;30.20;23.30;;;;;;5093260;28;20659;-78
2022/08/10 10:26:36;;;;;;;3.40;2.30;;;30.80;23.40;;;;;;5093557;28;20254;-77
2022/08/10 10:29:13;;;;;;;4.20;2.25;;;31.40;23.40;;;;;;5093423;28;20242;-78
2022/08/10 10:31:48;;;;;;;4.47;2.30;;;31.50;23.00;;;;;;5093353;28;20246;-78
2022/08/10 10:34:21;;;;;;;8.10;2.63;;;31.30;23.10;;;;;;5093241;28;20199;-78
2022/08/10 10:36:51;;;;;;;4.05;2.70;;;31.80;22.60;;;;;;5093175;28;20192;-78
2022/08/10 10:39:20;;;;;;;4.20;2.78;;;32.40;21.30;;;;;;5093306;28;20199;-77
2022/08/10 10:41:52;;;;;;;6.38;2.42;;;32.30;21.70;;;;;;5092969;28;20330;-75
2022/08/10 10:44:32;;;;;;;6.55;2.90;;;33.10;20.70;;;;;;5093146;28;20772;-76
2022/08/10 10:47:21;;;;;;;3.45;2.15;;;33.80;20.50;;;;;;5093027;28;20195;-77
2022/08/10 10:49:56;;;;;;;6.38;2.20;;;33.30;20.00;;;;;;5092811;28;20716;-77
2022/08/10 10:52:38;;;;;;;5.45;2.30;;;33.30;19.80;;;;;;5093035;28;20215;-78
2022/08/10 10:55:15;;;;;;;6.20;2.45;;;34.20;19.00;;;;;;5092577;28;20233;-78
2022/08/10 10:57:51;;;;;;;5.05;2.50;;;34.30;18.30;;;;;;5092494;28;20594;-78
2022/08/10 11:00:21;;;;;;;4.97;2.40;;;33.90;18.00;;;;;;5092860;28;20539;-77
2022/08/10 11:02:59;;;;;;;4.03;2.20;;;34.30;18.10;;;;;;5092852;28;20196;-78
2022/08/10 11:05:33;;;;;;;8.25;2.10;;;35.10;17.40;;;;;;5092514;28;20282;-77
2022/08/10 11:08:07;;;;;;;3.58;2.30;;;35.20;17.00;;;;;;5093074;28;20192;-77
2022/08/10 11:10:38;;;;;;;2.20;2.00;;;35.70;16.70;;;;;;5093060;28;20200;-78
2022/08/10 11:13:25;;;;;;;3.22;2.13;;;36.10;16.40;;;;;;5092933;28;20199;-76
2022/08/10 11:16:01;;;;;;;2.38;2.13;;;36.50;15.70;;;;;;5093015;28;20200;-78
2022/08/10 11:18:36;;;;;;;2.15;1.88;;;36.90;15.00;;;;;;5093044;28;20256;-77
2022/08/10 11:21:13;;;;;;;2.30;2.10;;;37.10;14.40;;;;;;5092866;28;20226;-77
2022/08/10 11:23:49;;;;;;;2.75;2.03;;;37.80;13.90;;;;;;5092841;28;20203;-77
2022/08/10 11:26:26;;;;;;;3.20;2.00;;;37.00;13.50;;;;;;5092777;28;20204;-77
2022/08/10 11:29:02;;;;;;;6.93;2.47;;;37.10;13.80;;;;;;5092776;28;20219;-77
2022/08/10 11:31:35;;;;;;;2.65;2.10;;;37.40;14.10;;;;;;5092563;28;20196;-77
2022/08/10 11:34:06;;;;;;;2.50;2.00;;;37.70;14.70;;;;;;5092661;28;20202;-77
2022/08/10 11:36:42;;;;;;;4.68;2.50;;;37.10;14.30;;;;;;5092564;28;20295;-77
2022/08/10 11:39:15;;;;;;;3.55;2.25;;;37.10;14.90;;;;;;5092531;28;20646;-77
2022/08/10 11:41:52;;;;;;;2.53;2.10;;;38.10;14.40;;;;;;5092146;28;20231;-77
2022/08/10 11:44:28;;;;;;;6.90;2.30;;;37.50;14.10;;;;;;5092659;28;20279;-76
2022/08/10 11:47:01;;;;;;;2.20;2.00;;;35.60;14.70;;;;;;5092595;28;20313;-77
2022/08/10 11:49:31;;;;;;;2.40;2.20;;;35.20;15.70;;;;;;5092671;28;20237;-77
2022/08/10 11:52:04;;;;;;;4.75;2.25;;;36.80;15.00;;;;;;5092559;28;20210;-76
2022/08/10 11:54:42;;;;;;;2.92;2.38;;;37.40;14.40;;;;;;5092510;28;20277;-76
2022/08/10 11:57:11;;;;;;;4.63;2.20;;;36.00;14.60;;;;;;5092443;28;20196;-78
2022/08/10 11:59:56;;;;;;;2.47;1.90;;;35.90;15.00;;;;;;5092180;28;20192;-77
2022/08/10 12:02:25;;;;;;;2.55;2.00;;;37.30;14.30;;;;;;5092352;28;20655;-77
2022/08/10 12:04:55;;;;;;;6.78;2.20;;;38.10;13.70;;;;;;5092437;28;20192;-77
2022/08/10 12:07:26;;;;;;;2.30;2.10;;;37.60;13.20;;;;;;5093434;28;20245;-77
2022/08/10 12:09:55;;;;;;;2.28;2.03;;;37.60;14.00;;;;;;5095991;28;20196;-77
2022/08/10 12:12:24;;;;;;;6.05;2.20;;;38.20;13.40;;;;;;5095911;28;20621;-77
2022/08/10 12:14:59;;;;;;;3.30;2.40;;;39.00;13.40;;;;;;5095911;28;20192;-76
2022/08/10 12:17:32;;;;;;;4.43;2.20;;;37.60;13.40;;;;;;5095943;28;20195;-76
2022/08/10 12:20:04;;;;;;;3.03;2.42;;;35.90;14.20;;;;;;5095784;28;20207;-76
2022/08/10 12:22:38;;;;;;;2.45;2.22;;;35.70;14.60;;;;;;5095761;28;20257;-77
2022/08/10 12:25:11;;;;;;;2.63;2.00;;;36.70;14.00;;;;;;5095971;28;20203;-77
2022/08/10 12:27:41;;;;;;;3.78;2.67;;;36.90;13.80;;;;;;5095768;28;20257;-76
2022/08/10 12:30:10;;;;;;;3.83;2.60;;;37.30;14.00;;;;;;5095668;28;20474;-77
2022/08/10 12:32:45;;;;;;;3.00;2.30;;;38.50;13.60;;;;;;5095453;28;20245;-77
2022/08/10 12:35:18;;;;;;;2.33;2.13;;;38.30;13.20;;;;;;5095409;28;20242;-77
2022/08/10 12:37:50;;;;;;;4.88;2.30;;;37.40;13.80;;;;;;5095438;28;20601;-76
2022/08/10 12:40:21;;;;;;;3.42;2.30;;;36.20;14.00;;;;;;5094990;28;20706;-76
2022/08/10 12:42:55;;;;;;;3.33;2.00;;;37.20;13.90;;;;;;5095128;28;20200;-76
2022/08/10 12:45:31;;;;;;;3.72;2.20;;;37.00;13.80;;;;;;5095145;28;20191;-75
2022/08/10 12:48:02;;;;;;;3.90;2.17;;;37.80;13.30;;;;;;5095440;28;20234;-78
2022/08/10 12:50:38;;;;;;;4.72;2.10;;;38.30;13.20;;;;;;5095354;28;20204;-77
2022/08/10 12:53:17;;;;;;;3.17;2.28;;;39.70;12.20;;;;;;5095221;28;20191;-76
2022/08/10 12:55:47;;;;;;;4.50;1.90;;;40.40;11.40;;;;;;5096970;28;20263;-77
2022/08/10 12:58:17;;;;;;;3.47;2.33;;;41.20;11.20;;;;;;5105509;28;20196;-77
2022/08/10 13:00:45;;;;;;;3.00;2.00;;;39.10;11.40;;;;;;5103687;28;20237;-77
2022/08/10 13:03:13;;;;;;;4.55;2.00;;;38.20;12.00;;;;;;5097227;28;20196;-77
2022/08/10 13:05:42;;;;;;;4.72;2.08;;;36.70;12.50;;;;;;5098884;28;20276;-77
2022/08/10 13:11:00;;;;;;;4.45;2.15;;;36.50;13.20;;;;;;5095190;28;20251;-77